Time,TemperatureF,DewpointF,PressureIn,WindDirection,WindDirectionDegrees,WindSpeedMPH,WindSpeedGustMPH,Humidity,HourlyPrecipIn,Conditions,Clouds,dailyrainin,SolarRadiationWatts/m^2,SoftwareType,DateUTC
2013-07-07 00:01:00,63.0,33.0,-100.00,North,4,6.0,12.0,33,0.00,,,0.00,0.000000,,2013-07-07 07:01:00,
2013-07-07 00:11:00,63.0,33.0,-100.00,North,4,6.0,12.0,33,0.00,,,0.00,0.000000,,2013-07-07 07:11:00,
2013-07-07 00:44:00,63.0,33.0,-100.00,NNE,32,6.0,10.0,33,0.00,,,0.00,0.000000,,2013-07-07 07:44:00,
2013-07-07 00:53:00,63.0,33.0,-100.00,NNE,32,6.0,10.0,33,0.00,,,0.00,0.000000,,2013-07-07 07:53:00,
2013-07-07 01:02:00,63.0,33.0,-100.00,NNE,32,6.0,10.0,33,0.00,,,0.00,0.000000,,2013-07-07 08:02:00,
2013-07-07 01:44:00,61.0,32.0,-100.00,NNE,18,1.0,7.0,34,0.00,,,0.00,0.000000,,2013-07-07 08:44:00,
2013-07-07 01:53:00,61.0,32.0,-100.00,NNE,18,1.0,7.0,34,0.00,,,0.00,0.000000,,2013-07-07 08:53:00,
2013-07-07 02:02:00,61.0,32.0,-100.00,NNE,18,1.0,7.0,34,0.00,,,0.00,0.000000,,2013-07-07 09:02:00,
2013-07-07 02:12:00,61.0,32.0,-100.00,NNE,18,1.0,7.0,34,0.00,,,0.00,0.000000,,2013-07-07 09:12:00,
2013-07-07 02:43:00,59.0,31.0,-100.00,ESE,106,2.0,4.0,35,0.00,,,0.00,0.000000,,2013-07-07 09:43:00,
2013-07-07 02:53:00,59.0,31.0,-100.00,ESE,106,2.0,4.0,35,0.00,,,0.00,0.000000,,2013-07-07 09:53:00,
2013-07-07 03:03:00,59.0,31.0,-100.00,ESE,106,2.0,4.0,35,0.00,,,0.00,0.000000,,2013-07-07 10:03:00,
2013-07-07 03:12:00,59.0,31.0,-100.00,ESE,106,2.0,4.0,35,0.00,,,0.00,0.000000,,2013-07-07 10:12:00,
2013-07-07 03:32:00,58.0,31.0,-100.00,SE,139,3.0,5.0,36,0.00,,,0.00,0.000000,,2013-07-07 10:32:00,
2013-07-07 03:43:00,58.0,31.0,-100.00,SE,139,3.0,5.0,36,0.00,,,0.00,0.000000,,2013-07-07 10:43:00,
2013-07-07 03:52:00,58.0,31.0,-100.00,SE,139,3.0,5.0,36,0.00,,,0.00,0.000000,,2013-07-07 10:52:00,
2013-07-07 04:02:00,58.0,31.0,-100.00,SE,139,3.0,5.0,36,0.00,,,0.00,0.000000,,2013-07-07 11:02:00,
2013-07-07 04:11:00,58.0,31.0,-100.00,SE,139,3.0,5.0,36,0.00,,,0.00,0.000000,,2013-07-07 11:11:00,
2013-07-07 04:43:00,58.0,33.0,-100.00,SSE,152,2.0,5.0,39,0.00,,,0.00,0.000000,,2013-07-07 11:43:00,
2013-07-07 04:53:00,58.0,33.0,-100.00,SSE,152,2.0,5.0,39,0.00,,,0.00,0.000000,,2013-07-07 11:53:00,
2013-07-07 05:02:00,58.0,33.0,-100.00,SSE,152,2.0,5.0,39,0.00,,,0.00,0.000000,,2013-07-07 12:02:00,
2013-07-07 05:43:00,56.0,32.0,-100.00,ESE,123,2.0,4.0,40,0.00,,,0.00,0.000000,,2013-07-07 12:43:00,
2013-07-07 05:52:00,56.0,32.0,-100.00,ESE,123,2.0,4.0,40,0.00,,,0.00,0.000000,,2013-07-07 12:52:00,
2013-07-07 06:02:00,56.0,32.0,-100.00,ESE,123,2.0,4.0,40,0.00,,,0.00,0.000000,,2013-07-07 13:02:00,
2013-07-07 06:11:00,56.0,32.0,-100.00,ESE,123,2.0,4.0,40,0.00,,,0.00,0.000000,,2013-07-07 13:11:00,
2013-07-07 06:52:00,59.0,34.0,-100.00,SSE,151,3.0,5.0,39,0.00,,,0.00,28.000000,,2013-07-07 13:52:00,
2013-07-07 08:02:00,62.0,37.0,-100.00,SE,125,2.0,4.0,40,0.00,,,0.00,186.000000,,2013-07-07 15:02:00,
2013-07-07 08:11:00,62.0,37.0,-100.00,SE,125,2.0,4.0,40,0.00,,,0.00,186.000000,,2013-07-07 15:11:00,
2013-07-07 08:43:00,67.0,38.0,-100.00,NW,323,3.0,4.0,35,0.00,,,0.00,391.000000,,2013-07-07 15:43:00,
2013-07-07 08:52:00,67.0,38.0,-100.00,NW,323,3.0,4.0,35,0.00,,,0.00,391.000000,,2013-07-07 15:52:00,
2013-07-07 09:01:00,67.0,38.0,-100.00,NW,323,3.0,4.0,35,0.00,,,0.00,391.000000,,2013-07-07 16:01:00,
2013-07-07 09:11:00,67.0,38.0,-100.00,NW,323,3.0,4.0,35,0.00,,,0.00,391.000000,,2013-07-07 16:11:00,
2013-07-07 09:43:00,70.0,42.0,-100.00,NW,316,6.0,8.0,36,0.00,,,0.00,602.000000,,2013-07-07 16:43:00,
2013-07-07 09:53:00,70.0,42.0,-100.00,NW,316,6.0,8.0,36,0.00,,,0.00,602.000000,,2013-07-07 16:53:00,
2013-07-07 10:02:00,70.0,42.0,-100.00,NW,316,6.0,8.0,36,0.00,,,0.00,602.000000,,2013-07-07 17:02:00,
2013-07-07 10:11:00,70.0,42.0,-100.00,NW,316,6.0,8.0,36,0.00,,,0.00,602.000000,,2013-07-07 17:11:00,
2013-07-07 10:43:00,72.0,39.0,-100.00,NW,305,6.0,9.0,30,0.00,,,0.00,799.000000,,2013-07-07 17:43:00,
2013-07-07 10:53:00,72.0,39.0,-100.00,NW,305,6.0,9.0,30,0.00,,,0.00,799.000000,,2013-07-07 17:53:00,
2013-07-07 11:01:00,72.0,39.0,-100.00,NW,305,6.0,9.0,30,0.00,,,0.00,799.000000,,2013-07-07 18:01:00,
2013-07-07 11:11:00,72.0,39.0,-100.00,NW,305,6.0,9.0,30,0.00,,,0.00,799.000000,,2013-07-07 18:11:00,
2013-07-07 11:43:00,76.0,41.0,-100.00,North,358,6.0,11.0,28,0.00,,,0.00,961.000000,,2013-07-07 18:43:00,
2013-07-07 11:53:00,76.0,41.0,-100.00,North,358,6.0,11.0,28,0.00,,,0.00,961.000000,,2013-07-07 18:53:00,
2013-07-07 12:01:00,76.0,41.0,-100.00,North,358,6.0,11.0,28,0.00,,,0.00,961.000000,,2013-07-07 19:01:00,
2013-07-07 12:11:00,76.0,41.0,-100.00,North,358,6.0,11.0,28,0.00,,,0.00,961.000000,,2013-07-07 19:11:00,
2013-07-07 12:43:00,78.0,37.0,-100.00,NW,318,8.0,14.0,23,0.00,,,0.00,1076.000000,,2013-07-07 19:43:00,
2013-07-07 12:54:00,78.0,37.0,-100.00,NW,318,8.0,14.0,23,0.00,,,0.00,1076.000000,,2013-07-07 19:54:00,
2013-07-07 13:02:00,78.0,37.0,-100.00,NW,318,8.0,14.0,23,0.00,,,0.00,1076.000000,,2013-07-07 20:02:00,
2013-07-07 13:11:00,78.0,37.0,-100.00,NW,318,8.0,14.0,23,0.00,,,0.00,1076.000000,,2013-07-07 20:11:00,
2013-07-07 13:34:00,80.0,39.0,-100.00,NNW,329,9.0,16.0,23,0.00,,,0.00,1106.000000,,2013-07-07 20:34:00,
2013-07-07 13:42:00,80.0,39.0,-100.00,NNW,329,9.0,16.0,23,0.00,,,0.00,1106.000000,,2013-07-07 20:42:00,
2013-07-07 13:53:00,80.0,39.0,-100.00,NNW,329,9.0,16.0,23,0.00,,,0.00,1106.000000,,2013-07-07 20:53:00,
2013-07-07 14:02:00,80.0,39.0,-100.00,NNW,329,9.0,16.0,23,0.00,,,0.00,1106.000000,,2013-07-07 21:02:00,
2013-07-07 14:11:00,80.0,39.0,-100.00,NNW,329,9.0,16.0,23,0.00,,,0.00,1106.000000,,2013-07-07 21:11:00,
2013-07-07 14:44:00,81.0,39.0,-100.00,West,272,7.0,17.0,22,0.00,,,0.00,1078.000000,,2013-07-07 21:44:00,
2013-07-07 14:53:00,81.0,39.0,-100.00,West,272,7.0,17.0,22,0.00,,,0.00,1078.000000,,2013-07-07 21:53:00,
2013-07-07 15:01:00,81.0,39.0,-100.00,West,272,7.0,17.0,22,0.00,,,0.00,1078.000000,,2013-07-07 22:01:00,
2013-07-07 15:11:00,81.0,39.0,-100.00,West,272,7.0,17.0,22,0.00,,,0.00,1078.000000,,2013-07-07 22:11:00,
2013-07-07 15:34:00,82.0,34.0,-100.00,NNW,343,11.0,17.0,18,0.00,,,0.00,791.000000,,2013-07-07 22:34:00,
2013-07-07 15:44:00,82.0,34.0,-100.00,NNW,343,11.0,17.0,18,0.00,,,0.00,791.000000,,2013-07-07 22:44:00,
2013-07-07 15:53:00,82.0,34.0,-100.00,NNW,343,11.0,17.0,18,0.00,,,0.00,791.000000,,2013-07-07 22:53:00,
2013-07-07 16:01:00,82.0,34.0,-100.00,NNW,343,11.0,17.0,18,0.00,,,0.00,791.000000,,2013-07-07 23:01:00,
2013-07-07 16:11:00,82.0,34.0,-100.00,NNW,343,11.0,17.0,18,0.00,,,0.00,791.000000,,2013-07-07 23:11:00,
2013-07-07 16:33:00,83.0,35.0,-100.00,WSW,243,9.0,19.0,18,0.00,,,0.00,888.000000,,2013-07-07 23:33:00,
2013-07-07 16:43:00,83.0,35.0,-100.00,WSW,243,9.0,19.0,18,0.00,,,0.00,888.000000,,2013-07-07 23:43:00,
2013-07-07 16:53:00,83.0,35.0,-100.00,WSW,243,9.0,19.0,18,0.00,,,0.00,888.000000,,2013-07-07 23:53:00,
2013-07-07 17:01:00,83.0,35.0,-100.00,WSW,243,9.0,19.0,18,0.00,,,0.00,888.000000,,2013-07-08 00:01:00,
2013-07-07 17:11:00,83.0,35.0,-100.00,WSW,243,9.0,19.0,18,0.00,,,0.00,888.000000,,2013-07-08 00:11:00,
2013-07-07 17:43:00,81.0,35.0,-100.00,West,263,13.0,22.0,19,0.00,,,-99.99,750.000000,,2013-07-08 00:43:00,
2013-07-07 17:53:00,81.0,35.0,-100.00,West,263,13.0,22.0,19,0.00,,,-99.99,750.000000,,2013-07-08 00:53:00,
2013-07-07 18:01:00,81.0,35.0,-100.00,West,263,13.0,22.0,19,0.00,,,-99.99,750.000000,,2013-07-08 01:01:00,
2013-07-07 18:11:00,81.0,35.0,-100.00,West,263,13.0,22.0,19,0.00,,,-99.99,750.000000,,2013-07-08 01:11:00,
2013-07-07 18:32:00,81.0,36.0,-100.00,West,273,10.0,19.0,20,0.00,,,0.00,555.000000,,2013-07-08 01:32:00,
2013-07-07 18:43:00,81.0,36.0,-100.00,West,273,10.0,19.0,20,0.00,,,0.00,555.000000,,2013-07-08 01:43:00,
2013-07-07 18:53:00,81.0,36.0,-100.00,West,273,10.0,19.0,20,0.00,,,0.00,555.000000,,2013-07-08 01:53:00,
2013-07-07 19:02:00,81.0,36.0,-100.00,West,273,10.0,19.0,20,0.00,,,0.00,555.000000,,2013-07-08 02:02:00,
2013-07-07 19:11:00,81.0,36.0,-100.00,West,273,10.0,19.0,20,0.00,,,0.00,555.000000,,2013-07-08 02:11:00,
2013-07-07 19:42:00,78.0,34.0,-100.00,WNW,292,16.0,23.0,20,0.00,,,0.00,343.000000,,2013-07-08 02:42:00,
2013-07-07 19:52:00,78.0,34.0,-100.00,WNW,292,16.0,23.0,20,0.00,,,0.00,343.000000,,2013-07-08 02:52:00,
2013-07-07 20:01:00,78.0,34.0,-100.00,WNW,292,16.0,23.0,20,0.00,,,0.00,343.000000,,2013-07-08 03:01:00,
2013-07-07 20:11:00,78.0,34.0,-100.00,WNW,292,16.0,23.0,20,0.00,,,0.00,343.000000,,2013-07-08 03:11:00,
2013-07-07 20:34:00,71.0,44.0,-100.00,West,266,14.0,25.0,38,0.00,,,0.00,141.000000,,2013-07-08 03:34:00,
2013-07-07 20:42:00,71.0,44.0,-100.00,West,266,14.0,25.0,38,0.00,,,0.00,141.000000,,2013-07-08 03:42:00,
2013-07-07 20:52:00,71.0,44.0,-100.00,West,266,14.0,25.0,38,0.00,,,0.00,141.000000,,2013-07-08 03:52:00,
2013-07-07 21:01:00,71.0,44.0,-100.00,West,266,14.0,25.0,38,0.00,,,0.00,141.000000,,2013-07-08 04:01:00,
2013-07-07 21:11:00,71.0,44.0,-100.00,West,266,14.0,25.0,38,0.00,,,0.00,141.000000,,2013-07-08 04:11:00,
2013-07-07 21:33:00,65.0,40.0,-100.00,WSW,258,11.0,21.0,40,0.00,,,0.00,13.000000,,2013-07-08 04:33:00,
2013-07-07 21:42:00,65.0,40.0,-100.00,WSW,258,11.0,21.0,40,0.00,,,0.00,13.000000,,2013-07-08 04:42:00,
2013-07-07 21:53:00,65.0,40.0,-100.00,WSW,258,11.0,21.0,40,0.00,,,0.00,13.000000,,2013-07-08 04:53:00,
2013-07-07 22:01:00,65.0,40.0,-100.00,WSW,258,11.0,21.0,40,0.00,,,0.00,13.000000,,2013-07-08 05:01:00,
2013-07-07 22:11:00,65.0,40.0,-100.00,WSW,258,11.0,21.0,40,0.00,,,0.00,13.000000,,2013-07-08 05:11:00,
2013-07-07 22:43:00,63.0,34.0,-100.00,West,261,5.0,14.0,34,0.00,,,0.00,0.000000,,2013-07-08 05:43:00,
2013-07-07 22:53:00,63.0,34.0,-100.00,West,261,5.0,14.0,34,0.00,,,0.00,0.000000,,2013-07-08 05:53:00,
2013-07-07 23:01:00,63.0,34.0,-100.00,West,261,5.0,14.0,34,0.00,,,0.00,0.000000,,2013-07-08 06:01:00,
2013-07-07 23:11:00,63.0,34.0,-100.00,West,261,5.0,14.0,34,0.00,,,0.00,0.000000,,2013-07-08 06:11:00,
2013-07-07 23:43:00,60.0,28.0,-100.00,WSW,248,5.0,10.0,30,0.00,,,0.00,0.000000,,2013-07-08 06:43:00,
2013-07-07 23:53:00,60.0,28.0,-100.00,WSW,248,5.0,10.0,30,0.00,,,0.00,0.000000,,2013-07-08 06:53:00,